sensor_id;sensor_type;location;lat;lon;timestamp;temperature;humidity
22114;DHT22;11223;49.968;9.062;2023-07-30T00:01:27;18.00;99.90
22114;DHT22;11223;49.968;9.062;2023-07-30T00:03:52;17.90;99.90
22114;DHT22;11223;49.968;9.062;2023-07-30T00:06:18;17.90;99.90
22114;DHT22;11223;49.968;9.062;2023-07-30T00:08:43;17.80;99.90
22114;DHT22;11223;49.968;9.062;2023-07-30T00:11:09;17.80;99.90
22114;DHT22;11223;49.968;9.062;2023-07-30T00:13:34;17.80;99.90
22114;DHT22;11223;49.968;9.062;2023-07-30T00:15:59;17.80;99.90
22114;DHT22;11223;49.968;9.062;2023-07-30T00:18:25;17.80;99.90
22114;DHT22;11223;49.968;9.062;2023-07-30T00:20:50;17.70;99.90
22114;DHT22;11223;49.968;9.062;2023-07-30T00:23:16;17.70;99.90
22114;DHT22;11223;49.968;9.062;2023-07-30T00:25:41;17.70;99.90
22114;DHT22;11223;49.968;9.062;2023-07-30T00:28:07;17.70;99.90
22114;DHT22;11223;49.968;9.062;2023-07-30T00:30:32;17.60;99.90
22114;DHT22;11223;49.968;9.062;2023-07-30T00:32:58;17.60;99.90
22114;DHT22;11223;49.968;9.062;2023-07-30T00:35:23;17.60;99.90
22114;DHT22;11223;49.968;9.062;2023-07-30T00:37:49;17.60;99.90
22114;DHT22;11223;49.968;9.062;2023-07-30T00:40:14;17.50;99.90
22114;DHT22;11223;49.968;9.062;2023-07-30T00:42:40;17.50;99.90
22114;DHT22;11223;49.968;9.062;2023-07-30T00:45:05;17.50;99.90
22114;DHT22;11223;49.968;9.062;2023-07-30T00:47:31;17.40;99.90
22114;DHT22;11223;49.968;9.062;2023-07-30T00:49:57;17.40;99.90
22114;DHT22;11223;49.968;9.062;2023-07-30T00:52:22;17.40;99.90
22114;DHT22;11223;49.968;9.062;2023-07-30T00:54:48;17.40;99.90
22114;DHT22;11223;49.968;9.062;2023-07-30T00:57:15;17.40;99.90
22114;DHT22;11223;49.968;9.062;2023-07-30T00:59:41;17.40;99.90
22114;DHT22;11223;49.968;9.062;2023-07-30T01:02:06;17.40;99.90
22114;DHT22;11223;49.968;9.062;2023-07-30T01:04:32;17.40;99.90
22114;DHT22;11223;49.968;9.062;2023-07-30T01:06:57;17.40;99.90
22114;DHT22;11223;49.968;9.062;2023-07-30T01:09:23;17.40;99.90
22114;DHT22;11223;49.968;9.062;2023-07-30T01:11:48;17.50;99.90
22114;DHT22;11223;49.968;9.062;2023-07-30T01:14:14;17.50;99.90
22114;DHT22;11223;49.968;9.062;2023-07-30T01:16:40;17.50;99.90
22114;DHT22;11223;49.968;9.062;2023-07-30T01:19:06;17.50;99.90
22114;DHT22;11223;49.968;9.062;2023-07-30T01:21:32;17.50;99.90
22114;DHT22;11223;49.968;9.062;2023-07-30T01:23:58;17.50;99.90
22114;DHT22;11223;49.968;9.062;2023-07-30T01:26:24;17.50;99.90
22114;DHT22;11223;49.968;9.062;2023-07-30T01:28:54;17.50;99.90
22114;DHT22;11223;49.968;9.062;2023-07-30T01:31:20;17.50;99.90
22114;DHT22;11223;49.968;9.062;2023-07-30T01:33:49;17.50;99.90
22114;DHT22;11223;49.968;9.062;2023-07-30T01:36:17;17.50;99.90
22114;DHT22;11223;49.968;9.062;2023-07-30T01:38:44;17.50;99.90
22114;DHT22;11223;49.968;9.062;2023-07-30T01:41:10;17.50;99.90
22114;DHT22;11223;49.968;9.062;2023-07-30T01:43:36;17.50;99.90
22114;DHT22;11223;49.968;9.062;2023-07-30T01:46:02;17.50;99.90
22114;DHT22;11223;49.968;9.062;2023-07-30T01:48:27;17.50;99.90
22114;DHT22;11223;49.968;9.062;2023-07-30T01:50:52;17.50;99.90
22114;DHT22;11223;49.968;9.062;2023-07-30T01:53:18;17.50;99.90
22114;DHT22;11223;49.968;9.062;2023-07-30T01:55:43;17.50;99.90
22114;DHT22;11223;49.968;9.062;2023-07-30T01:58:11;17.50;99.90
22114;DHT22;11223;49.968;9.062;2023-07-30T02:00:37;17.40;99.90
22114;DHT22;11223;49.968;9.062;2023-07-30T02:03:02;17.40;99.90
22114;DHT22;11223;49.968;9.062;2023-07-30T02:05:28;17.40;99.90
22114;DHT22;11223;49.968;9.062;2023-07-30T02:07:53;17.40;99.90
22114;DHT22;11223;49.968;9.062;2023-07-30T02:10:19;17.40;99.90
22114;DHT22;11223;49.968;9.062;2023-07-30T02:12:44;17.40;99.90
22114;DHT22;11223;49.968;9.062;2023-07-30T02:15:10;17.40;99.90
22114;DHT22;11223;49.968;9.062;2023-07-30T02:17:35;17.50;99.90
22114;DHT22;11223;49.968;9.062;2023-07-30T02:20:01;17.40;99.90
22114;DHT22;11223;49.968;9.062;2023-07-30T02:22:26;17.50;99.90
22114;DHT22;11223;49.968;9.062;2023-07-30T02:24:52;17.50;99.90
22114;DHT22;11223;49.968;9.062;2023-07-30T02:27:17;17.50;99.90
22114;DHT22;11223;49.968;9.062;2023-07-30T02:29:42;17.50;99.90
22114;DHT22;11223;49.968;9.062;2023-07-30T02:32:08;17.50;99.90
22114;DHT22;11223;49.968;9.062;2023-07-30T02:34:34;17.50;99.90
22114;DHT22;11223;49.968;9.062;2023-07-30T02:36:59;17.50;99.90
22114;DHT22;11223;49.968;9.062;2023-07-30T02:39:25;17.50;99.90
22114;DHT22;11223;49.968;9.062;2023-07-30T02:41:50;17.50;99.90
22114;DHT22;11223;49.968;9.062;2023-07-30T02:44:15;17.50;99.90
22114;DHT22;11223;49.968;9.062;2023-07-30T02:46:41;17.50;99.90
22114;DHT22;11223;49.968;9.062;2023-07-30T02:49:07;17.50;99.90
22114;DHT22;11223;49.968;9.062;2023-07-30T02:51:33;17.50;99.90
22114;DHT22;11223;49.968;9.062;2023-07-30T02:54:03;17.50;99.90
22114;DHT22;11223;49.968;9.062;2023-07-30T02:56:28;17.50;99.90
22114;DHT22;11223;49.968;9.062;2023-07-30T02:58:54;17.40;99.90
22114;DHT22;11223;49.968;9.062;2023-07-30T03:01:19;17.50;99.90
22114;DHT22;11223;49.968;9.062;2023-07-30T03:03:45;17.40;99.90
22114;DHT22;11223;49.968;9.062;2023-07-30T03:06:10;17.40;99.90
22114;DHT22;11223;49.968;9.062;2023-07-30T03:08:36;17.40;99.90
22114;DHT22;11223;49.968;9.062;2023-07-30T03:11:02;17.40;99.90
22114;DHT22;11223;49.968;9.062;2023-07-30T03:13:28;17.40;99.90
22114;DHT22;11223;49.968;9.062;2023-07-30T03:15:53;17.40;99.90
22114;DHT22;11223;49.968;9.062;2023-07-30T03:18:19;17.40;99.90
22114;DHT22;11223;49.968;9.062;2023-07-30T03:20:44;17.40;99.90
22114;DHT22;11223;49.968;9.062;2023-07-30T03:23:09;17.30;99.90
22114;DHT22;11223;49.968;9.062;2023-07-30T03:25:35;17.40;99.90
22114;DHT22;11223;49.968;9.062;2023-07-30T03:28:00;17.40;99.90
22114;DHT22;11223;49.968;9.062;2023-07-30T03:30:26;17.40;99.90
22114;DHT22;11223;49.968;9.062;2023-07-30T03:32:51;17.40;99.90
22114;DHT22;11223;49.968;9.062;2023-07-30T03:35:17;17.40;99.90
22114;DHT22;11223;49.968;9.062;2023-07-30T03:37:42;17.40;99.90
22114;DHT22;11223;49.968;9.062;2023-07-30T03:40:08;17.30;99.90
22114;DHT22;11223;49.968;9.062;2023-07-30T03:42:33;17.40;99.90
22114;DHT22;11223;49.968;9.062;2023-07-30T03:44:59;17.40;99.90
22114;DHT22;11223;49.968;9.062;2023-07-30T03:47:24;17.40;99.90
22114;DHT22;11223;49.968;9.062;2023-07-30T03:49:50;17.40;99.90
22114;DHT22;11223;49.968;9.062;2023-07-30T03:52:15;17.30;99.90
22114;DHT22;11223;49.968;9.062;2023-07-30T03:54:42;17.40;99.90
22114;DHT22;11223;49.968;9.062;2023-07-30T03:57:08;17.40;99.90
22114;DHT22;11223;49.968;9.062;2023-07-30T03:59:33;17.40;99.90
22114;DHT22;11223;49.968;9.062;2023-07-30T04:01:59;17.40;99.90
22114;DHT22;11223;49.968;9.062;2023-07-30T04:04:24;17.40;99.90
22114;DHT22;11223;49.968;9.062;2023-07-30T04:06:50;17.40;99.90
22114;DHT22;11223;49.968;9.062;2023-07-30T04:09:15;17.30;99.90
22114;DHT22;11223;49.968;9.062;2023-07-30T04:11:41;17.40;99.90
22114;DHT22;11223;49.968;9.062;2023-07-30T04:14:06;17.30;99.90
22114;DHT22;11223;49.968;9.062;2023-07-30T04:16:34;17.30;99.90
22114;DHT22;11223;49.968;9.062;2023-07-30T04:18:59;17.30;99.90
22114;DHT22;11223;49.968;9.062;2023-07-30T04:21:25;17.20;99.90
22114;DHT22;11223;49.968;9.062;2023-07-30T04:23:50;17.20;99.90
22114;DHT22;11223;49.968;9.062;2023-07-30T04:26:16;17.30;99.90
22114;DHT22;11223;49.968;9.062;2023-07-30T04:28:41;17.30;99.90
22114;DHT22;11223;49.968;9.062;2023-07-30T04:31:07;17.30;99.90
22114;DHT22;11223;49.968;9.062;2023-07-30T04:33:32;17.30;99.90
22114;DHT22;11223;49.968;9.062;2023-07-30T04:35:58;17.40;99.90
22114;DHT22;11223;49.968;9.062;2023-07-30T04:38:23;17.40;99.90
22114;DHT22;11223;49.968;9.062;2023-07-30T04:40:49;17.50;99.90
22114;DHT22;11223;49.968;9.062;2023-07-30T04:43:15;17.50;99.90
22114;DHT22;11223;49.968;9.062;2023-07-30T04:45:41;17.50;99.90
22114;DHT22;11223;49.968;9.062;2023-07-30T04:48:07;17.60;99.90
22114;DHT22;11223;49.968;9.062;2023-07-30T04:50:32;17.70;99.90
22114;DHT22;11223;49.968;9.062;2023-07-30T04:52:58;17.70;99.90
22114;DHT22;11223;49.968;9.062;2023-07-30T04:55:24;17.80;99.90
22114;DHT22;11223;49.968;9.062;2023-07-30T04:57:49;17.80;99.90
22114;DHT22;11223;49.968;9.062;2023-07-30T05:00:15;17.90;99.90
22114;DHT22;11223;49.968;9.062;2023-07-30T05:02:40;17.90;99.90
22114;DHT22;11223;49.968;9.062;2023-07-30T05:05:06;17.90;99.90
22114;DHT22;11223;49.968;9.062;2023-07-30T05:07:31;17.90;99.90
22114;DHT22;11223;49.968;9.062;2023-07-30T05:09:57;18.00;99.90
22114;DHT22;11223;49.968;9.062;2023-07-30T05:12:22;18.00;99.90
22114;DHT22;11223;49.968;9.062;2023-07-30T05:14:48;18.00;99.90
22114;DHT22;11223;49.968;9.062;2023-07-30T05:17:13;18.00;99.90
22114;DHT22;11223;49.968;9.062;2023-07-30T05:19:39;18.00;99.90
22114;DHT22;11223;49.968;9.062;2023-07-30T05:22:04;18.00;99.90
22114;DHT22;11223;49.968;9.062;2023-07-30T05:24:31;18.00;99.90
22114;DHT22;11223;49.968;9.062;2023-07-30T05:26:56;18.00;99.90
22114;DHT22;11223;49.968;9.062;2023-07-30T05:29:22;18.10;99.90
22114;DHT22;11223;49.968;9.062;2023-07-30T05:31:47;18.10;99.90
22114;DHT22;11223;49.968;9.062;2023-07-30T05:34:13;18.10;99.90
22114;DHT22;11223;49.968;9.062;2023-07-30T05:36:38;18.10;99.90
22114;DHT22;11223;49.968;9.062;2023-07-30T05:39:03;18.10;99.90
22114;DHT22;11223;49.968;9.062;2023-07-30T05:41:29;18.20;99.90
22114;DHT22;11223;49.968;9.062;2023-07-30T05:43:54;18.30;99.90
22114;DHT22;11223;49.968;9.062;2023-07-30T05:46:20;18.30;99.90
22114;DHT22;11223;49.968;9.062;2023-07-30T05:48:45;18.40;99.90
22114;DHT22;11223;49.968;9.062;2023-07-30T05:51:11;18.50;99.90
22114;DHT22;11223;49.968;9.062;2023-07-30T05:53:36;18.50;99.90
22114;DHT22;11223;49.968;9.062;2023-07-30T05:56:02;18.60;99.90
22114;DHT22;11223;49.968;9.062;2023-07-30T05:58:27;18.70;99.90
22114;DHT22;11223;49.968;9.062;2023-07-30T06:00:53;18.70;99.90
22114;DHT22;11223;49.968;9.062;2023-07-30T06:03:18;18.70;99.90
22114;DHT22;11223;49.968;9.062;2023-07-30T06:05:44;18.70;99.90
22114;DHT22;11223;49.968;9.062;2023-07-30T06:08:09;18.70;99.90
22114;DHT22;11223;49.968;9.062;2023-07-30T06:10:35;18.70;99.90
22114;DHT22;11223;49.968;9.062;2023-07-30T06:13:02;18.70;99.90
22114;DHT22;11223;49.968;9.062;2023-07-30T06:15:27;18.70;99.90
22114;DHT22;11223;49.968;9.062;2023-07-30T06:17:53;18.80;99.90
22114;DHT22;11223;49.968;9.062;2023-07-30T06:20:18;18.90;99.90
22114;DHT22;11223;49.968;9.062;2023-07-30T06:22:44;19.00;99.90
22114;DHT22;11223;49.968;9.062;2023-07-30T06:25:09;19.10;99.90
22114;DHT22;11223;49.968;9.062;2023-07-30T06:27:35;19.20;99.90
22114;DHT22;11223;49.968;9.062;2023-07-30T06:30:00;19.30;99.90
22114;DHT22;11223;49.968;9.062;2023-07-30T06:32:26;19.50;99.90
22114;DHT22;11223;49.968;9.062;2023-07-30T06:34:51;19.70;99.90
22114;DHT22;11223;49.968;9.062;2023-07-30T06:37:17;19.90;99.90
22114;DHT22;11223;49.968;9.062;2023-07-30T06:39:42;20.10;99.90
22114;DHT22;11223;49.968;9.062;2023-07-30T06:42:08;20.30;99.90
22114;DHT22;11223;49.968;9.062;2023-07-30T06:44:34;20.40;99.90
22114;DHT22;11223;49.968;9.062;2023-07-30T06:46:59;20.50;99.90
22114;DHT22;11223;49.968;9.062;2023-07-30T06:49:25;20.50;99.90
22114;DHT22;11223;49.968;9.062;2023-07-30T06:51:50;20.50;99.90
22114;DHT22;11223;49.968;9.062;2023-07-30T06:54:16;20.50;99.90
22114;DHT22;11223;49.968;9.062;2023-07-30T06:56:41;20.60;99.90
22114;DHT22;11223;49.968;9.062;2023-07-30T06:59:07;20.60;99.90
22114;DHT22;11223;49.968;9.062;2023-07-30T07:01:32;20.70;99.90
22114;DHT22;11223;49.968;9.062;2023-07-30T07:03:57;20.80;99.90
22114;DHT22;11223;49.968;9.062;2023-07-30T07:06:23;20.80;99.90
22114;DHT22;11223;49.968;9.062;2023-07-30T07:08:49;20.90;99.90
22114;DHT22;11223;49.968;9.062;2023-07-30T07:11:14;20.90;99.90
22114;DHT22;11223;49.968;9.062;2023-07-30T07:13:39;20.90;99.90
22114;DHT22;11223;49.968;9.062;2023-07-30T07:16:05;20.90;99.90
22114;DHT22;11223;49.968;9.062;2023-07-30T07:18:30;21.00;99.90
22114;DHT22;11223;49.968;9.062;2023-07-30T07:20:56;21.00;99.90
22114;DHT22;11223;49.968;9.062;2023-07-30T07:23:21;20.90;99.90
22114;DHT22;11223;49.968;9.062;2023-07-30T07:25:47;20.90;99.90
22114;DHT22;11223;49.968;9.062;2023-07-30T07:28:12;20.90;99.90
22114;DHT22;11223;49.968;9.062;2023-07-30T07:30:38;20.90;99.90
22114;DHT22;11223;49.968;9.062;2023-07-30T07:33:03;20.90;99.90
22114;DHT22;11223;49.968;9.062;2023-07-30T07:35:31;20.80;99.90
22114;DHT22;11223;49.968;9.062;2023-07-30T07:37:56;20.90;99.90
22114;DHT22;11223;49.968;9.062;2023-07-30T07:40:22;20.90;99.90
22114;DHT22;11223;49.968;9.062;2023-07-30T07:42:47;20.90;99.90
22114;DHT22;11223;49.968;9.062;2023-07-30T07:45:13;21.00;99.90
22114;DHT22;11223;49.968;9.062;2023-07-30T07:47:38;21.10;99.90
22114;DHT22;11223;49.968;9.062;2023-07-30T07:50:04;21.10;99.90
22114;DHT22;11223;49.968;9.062;2023-07-30T07:52:30;21.20;99.90
22114;DHT22;11223;49.968;9.062;2023-07-30T07:54:55;21.30;99.90
22114;DHT22;11223;49.968;9.062;2023-07-30T07:57:21;21.40;99.90
22114;DHT22;11223;49.968;9.062;2023-07-30T07:59:46;21.40;99.90
22114;DHT22;11223;49.968;9.062;2023-07-30T08:02:12;21.30;99.90
22114;DHT22;11223;49.968;9.062;2023-07-30T08:04:38;21.10;99.90
22114;DHT22;11223;49.968;9.062;2023-07-30T08:07:03;21.00;99.90
22114;DHT22;11223;49.968;9.062;2023-07-30T08:09:29;20.90;99.90
22114;DHT22;11223;49.968;9.062;2023-07-30T08:11:55;20.80;99.90
22114;DHT22;11223;49.968;9.062;2023-07-30T08:14:20;20.70;99.90
22114;DHT22;11223;49.968;9.062;2023-07-30T08:16:46;20.60;99.90
22114;DHT22;11223;49.968;9.062;2023-07-30T08:19:11;20.60;99.90
22114;DHT22;11223;49.968;9.062;2023-07-30T08:21:37;20.50;99.90
22114;DHT22;11223;49.968;9.062;2023-07-30T08:24:02;20.40;99.90
22114;DHT22;11223;49.968;9.062;2023-07-30T08:26:28;20.30;99.90
22114;DHT22;11223;49.968;9.062;2023-07-30T08:28:53;20.10;99.90
22114;DHT22;11223;49.968;9.062;2023-07-30T08:31:19;20.00;99.90
22114;DHT22;11223;49.968;9.062;2023-07-30T08:33:44;19.80;99.90
22114;DHT22;11223;49.968;9.062;2023-07-30T08:36:10;19.60;99.90
22114;DHT22;11223;49.968;9.062;2023-07-30T08:38:35;19.50;99.90
22114;DHT22;11223;49.968;9.062;2023-07-30T08:41:01;19.50;99.90
22114;DHT22;11223;49.968;9.062;2023-07-30T08:43:26;19.50;99.90
22114;DHT22;11223;49.968;9.062;2023-07-30T08:45:52;19.60;99.90
22114;DHT22;11223;49.968;9.062;2023-07-30T08:48:17;19.70;99.90
22114;DHT22;11223;49.968;9.062;2023-07-30T08:50:43;19.80;99.90
22114;DHT22;11223;49.968;9.062;2023-07-30T08:53:09;20.00;99.90
22114;DHT22;11223;49.968;9.062;2023-07-30T08:55:34;20.10;99.90
22114;DHT22;11223;49.968;9.062;2023-07-30T08:58:03;20.30;99.90
22114;DHT22;11223;49.968;9.062;2023-07-30T09:00:31;20.40;99.90
22114;DHT22;11223;49.968;9.062;2023-07-30T09:02:58;20.60;99.90
22114;DHT22;11223;49.968;9.062;2023-07-30T09:05:24;20.70;99.90
22114;DHT22;11223;49.968;9.062;2023-07-30T09:07:50;20.80;99.90
22114;DHT22;11223;49.968;9.062;2023-07-30T09:10:16;20.80;99.90
22114;DHT22;11223;49.968;9.062;2023-07-30T09:12:41;20.80;99.90
22114;DHT22;11223;49.968;9.062;2023-07-30T09:15:07;20.90;99.90
22114;DHT22;11223;49.968;9.062;2023-07-30T09:17:33;21.00;99.90
22114;DHT22;11223;49.968;9.062;2023-07-30T09:19:59;21.10;99.90
22114;DHT22;11223;49.968;9.062;2023-07-30T09:22:26;21.20;99.90
22114;DHT22;11223;49.968;9.062;2023-07-30T09:24:55;21.40;99.90
22114;DHT22;11223;49.968;9.062;2023-07-30T09:27:22;21.40;99.90
22114;DHT22;11223;49.968;9.062;2023-07-30T09:29:50;21.50;99.90
22114;DHT22;11223;49.968;9.062;2023-07-30T09:32:15;21.60;99.90
22114;DHT22;11223;49.968;9.062;2023-07-30T09:34:41;21.60;99.90
22114;DHT22;11223;49.968;9.062;2023-07-30T09:37:09;21.70;99.90
22114;DHT22;11223;49.968;9.062;2023-07-30T09:39:36;21.80;99.90
22114;DHT22;11223;49.968;9.062;2023-07-30T09:42:02;21.90;99.90
22114;DHT22;11223;49.968;9.062;2023-07-30T09:44:28;21.90;99.90
22114;DHT22;11223;49.968;9.062;2023-07-30T09:46:53;21.90;99.90
22114;DHT22;11223;49.968;9.062;2023-07-30T09:49:19;21.90;99.90
22114;DHT22;11223;49.968;9.062;2023-07-30T09:51:44;22.00;99.90
22114;DHT22;11223;49.968;9.062;2023-07-30T09:54:14;22.10;99.90
22114;DHT22;11223;49.968;9.062;2023-07-30T09:56:41;22.20;99.90
22114;DHT22;11223;49.968;9.062;2023-07-30T09:59:07;22.30;99.90
22114;DHT22;11223;49.968;9.062;2023-07-30T10:01:32;22.30;99.90
22114;DHT22;11223;49.968;9.062;2023-07-30T10:04:02;22.20;99.90
22114;DHT22;11223;49.968;9.062;2023-07-30T10:06:31;22.20;99.90
22114;DHT22;11223;49.968;9.062;2023-07-30T10:08:57;22.10;99.90
22114;DHT22;11223;49.968;9.062;2023-07-30T10:11:23;22.20;99.90
22114;DHT22;11223;49.968;9.062;2023-07-30T10:13:50;22.20;99.90
22114;DHT22;11223;49.968;9.062;2023-07-30T10:16:15;22.00;99.90
22114;DHT22;11223;49.968;9.062;2023-07-30T10:18:42;21.80;99.90
22114;DHT22;11223;49.968;9.062;2023-07-30T10:21:08;21.50;99.90
22114;DHT22;11223;49.968;9.062;2023-07-30T10:23:46;21.40;99.90
22114;DHT22;11223;49.968;9.062;2023-07-30T10:26:11;21.20;99.90
22114;DHT22;11223;49.968;9.062;2023-07-30T10:28:37;21.10;99.90
22114;DHT22;11223;49.968;9.062;2023-07-30T10:31:05;21.00;99.90
22114;DHT22;11223;49.968;9.062;2023-07-30T10:33:52;21.00;99.90
22114;DHT22;11223;49.968;9.062;2023-07-30T10:36:30;21.00;99.90
22114;DHT22;11223;49.968;9.062;2023-07-30T10:38:56;21.20;99.90
22114;DHT22;11223;49.968;9.062;2023-07-30T10:41:21;21.30;99.90
22114;DHT22;11223;49.968;9.062;2023-07-30T10:43:48;21.20;99.90
22114;DHT22;11223;49.968;9.062;2023-07-30T10:46:15;21.20;99.90
22114;DHT22;11223;49.968;9.062;2023-07-30T10:48:45;21.20;99.90
22114;DHT22;11223;49.968;9.062;2023-07-30T10:51:11;21.20;99.90
22114;DHT22;11223;49.968;9.062;2023-07-30T10:53:37;21.10;99.90
22114;DHT22;11223;49.968;9.062;2023-07-30T10:56:03;21.20;99.90
22114;DHT22;11223;49.968;9.062;2023-07-30T10:58:31;21.30;99.90
22114;DHT22;11223;49.968;9.062;2023-07-30T11:00:57;21.40;99.90
22114;DHT22;11223;49.968;9.062;2023-07-30T11:03:26;21.40;99.90
22114;DHT22;11223;49.968;9.062;2023-07-30T11:05:52;21.50;99.90
22114;DHT22;11223;49.968;9.062;2023-07-30T11:08:17;21.50;99.90
22114;DHT22;11223;49.968;9.062;2023-07-30T11:10:46;21.80;99.90
22114;DHT22;11223;49.968;9.062;2023-07-30T11:13:13;22.10;99.90
22114;DHT22;11223;49.968;9.062;2023-07-30T11:15:42;22.20;99.90
22114;DHT22;11223;49.968;9.062;2023-07-30T11:18:08;22.10;99.90
22114;DHT22;11223;49.968;9.062;2023-07-30T11:20:33;22.00;99.90
22114;DHT22;11223;49.968;9.062;2023-07-30T11:22:59;21.70;99.90
22114;DHT22;11223;49.968;9.062;2023-07-30T11:25:24;21.70;99.90
22114;DHT22;11223;49.968;9.062;2023-07-30T11:27:50;21.70;99.90
22114;DHT22;11223;49.968;9.062;2023-07-30T11:30:16;21.80;99.90
22114;DHT22;11223;49.968;9.062;2023-07-30T11:32:42;21.80;99.90
22114;DHT22;11223;49.968;9.062;2023-07-30T11:35:08;21.90;99.90
22114;DHT22;11223;49.968;9.062;2023-07-30T11:37:33;22.00;99.90
22114;DHT22;11223;49.968;9.062;2023-07-30T11:39:59;22.40;99.90
22114;DHT22;11223;49.968;9.062;2023-07-30T11:42:25;22.70;99.90
22114;DHT22;11223;49.968;9.062;2023-07-30T11:44:51;22.80;99.90
22114;DHT22;11223;49.968;9.062;2023-07-30T11:47:23;23.00;99.90
22114;DHT22;11223;49.968;9.062;2023-07-30T11:49:55;23.10;99.90
22114;DHT22;11223;49.968;9.062;2023-07-30T11:52:21;23.20;99.90
22114;DHT22;11223;49.968;9.062;2023-07-30T11:54:46;23.10;99.90
22114;DHT22;11223;49.968;9.062;2023-07-30T11:57:12;23.10;99.90
22114;DHT22;11223;49.968;9.062;2023-07-30T11:59:37;22.90;99.90
22114;DHT22;11223;49.968;9.062;2023-07-30T12:02:04;22.80;99.90
22114;DHT22;11223;49.968;9.062;2023-07-30T12:04:30;22.70;99.90
22114;DHT22;11223;49.968;9.062;2023-07-30T12:06:56;22.80;99.90
22114;DHT22;11223;49.968;9.062;2023-07-30T12:09:22;22.90;99.90
22114;DHT22;11223;49.968;9.062;2023-07-30T12:14:16;23.10;99.90
22114;DHT22;11223;49.968;9.062;2023-07-30T12:16:42;23.00;99.90
22114;DHT22;11223;49.968;9.062;2023-07-30T12:19:07;22.70;99.90
22114;DHT22;11223;49.968;9.062;2023-07-30T12:21:33;22.50;99.90
22114;DHT22;11223;49.968;9.062;2023-07-30T12:23:59;22.20;99.90
22114;DHT22;11223;49.968;9.062;2023-07-30T12:26:24;22.20;99.90
22114;DHT22;11223;49.968;9.062;2023-07-30T12:28:50;22.40;99.90
22114;DHT22;11223;49.968;9.062;2023-07-30T12:31:15;22.50;99.90
22114;DHT22;11223;49.968;9.062;2023-07-30T12:33:41;22.50;99.90
22114;DHT22;11223;49.968;9.062;2023-07-30T12:36:06;22.50;99.90
22114;DHT22;11223;49.968;9.062;2023-07-30T12:38:32;22.40;99.90
22114;DHT22;11223;49.968;9.062;2023-07-30T12:40:57;22.30;99.90
22114;DHT22;11223;49.968;9.062;2023-07-30T12:43:23;22.40;99.90
22114;DHT22;11223;49.968;9.062;2023-07-30T12:45:48;22.30;99.90
22114;DHT22;11223;49.968;9.062;2023-07-30T12:48:14;22.50;99.90
22114;DHT22;11223;49.968;9.062;2023-07-30T12:50:39;22.60;99.90
22114;DHT22;11223;49.968;9.062;2023-07-30T12:53:05;22.80;99.90
22114;DHT22;11223;49.968;9.062;2023-07-30T12:55:30;22.90;99.90
22114;DHT22;11223;49.968;9.062;2023-07-30T12:57:56;22.90;99.90
22114;DHT22;11223;49.968;9.062;2023-07-30T13:00:21;23.00;99.90
22114;DHT22;11223;49.968;9.062;2023-07-30T13:02:47;22.90;99.90
22114;DHT22;11223;49.968;9.062;2023-07-30T13:05:12;22.90;99.90
22114;DHT22;11223;49.968;9.062;2023-07-30T13:07:39;23.00;99.90
22114;DHT22;11223;49.968;9.062;2023-07-30T13:10:08;23.20;99.90
22114;DHT22;11223;49.968;9.062;2023-07-30T13:12:34;23.10;99.90
22114;DHT22;11223;49.968;9.062;2023-07-30T13:14:59;23.10;99.90
22114;DHT22;11223;49.968;9.062;2023-07-30T13:17:25;23.00;99.90
22114;DHT22;11223;49.968;9.062;2023-07-30T13:19:50;23.00;99.90
22114;DHT22;11223;49.968;9.062;2023-07-30T13:22:16;23.10;99.90
22114;DHT22;11223;49.968;9.062;2023-07-30T13:24:42;23.00;99.90
22114;DHT22;11223;49.968;9.062;2023-07-30T13:27:07;23.10;99.90
22114;DHT22;11223;49.968;9.062;2023-07-30T13:29:33;23.10;99.90
22114;DHT22;11223;49.968;9.062;2023-07-30T13:31:58;23.40;99.90
22114;DHT22;11223;49.968;9.062;2023-07-30T13:34:24;23.70;99.90
22114;DHT22;11223;49.968;9.062;2023-07-30T13:36:49;23.80;99.90
22114;DHT22;11223;49.968;9.062;2023-07-30T13:39:15;24.00;99.90
22114;DHT22;11223;49.968;9.062;2023-07-30T13:41:40;24.30;99.90
22114;DHT22;11223;49.968;9.062;2023-07-30T13:44:06;24.40;99.90
22114;DHT22;11223;49.968;9.062;2023-07-30T13:46:31;24.60;99.90
22114;DHT22;11223;49.968;9.062;2023-07-30T13:48:57;24.80;99.90
22114;DHT22;11223;49.968;9.062;2023-07-30T13:51:22;25.10;99.40
22114;DHT22;11223;49.968;9.062;2023-07-30T13:53:48;24.90;99.60
22114;DHT22;11223;49.968;9.062;2023-07-30T13:56:13;24.70;99.90
22114;DHT22;11223;49.968;9.062;2023-07-30T13:58:39;24.50;99.90
22114;DHT22;11223;49.968;9.062;2023-07-30T14:01:05;24.50;99.90
22114;DHT22;11223;49.968;9.062;2023-07-30T14:03:31;24.70;99.70
22114;DHT22;11223;49.968;9.062;2023-07-30T14:05:57;24.90;99.90
22114;DHT22;11223;49.968;9.062;2023-07-30T14:08:22;24.80;99.90
22114;DHT22;11223;49.968;9.062;2023-07-30T14:10:48;24.70;98.60
22114;DHT22;11223;49.968;9.062;2023-07-30T14:13:13;24.50;99.90
22114;DHT22;11223;49.968;9.062;2023-07-30T14:15:39;24.40;99.90
22114;DHT22;11223;49.968;9.062;2023-07-30T14:18:04;24.30;99.90
22114;DHT22;11223;49.968;9.062;2023-07-30T14:20:30;24.00;99.90
22114;DHT22;11223;49.968;9.062;2023-07-30T14:22:55;23.70;98.70
22114;DHT22;11223;49.968;9.062;2023-07-30T14:25:21;23.40;99.90
22114;DHT22;11223;49.968;9.062;2023-07-30T14:27:46;23.10;99.90
22114;DHT22;11223;49.968;9.062;2023-07-30T14:30:12;22.90;99.90
22114;DHT22;11223;49.968;9.062;2023-07-30T14:32:37;22.70;99.90
22114;DHT22;11223;49.968;9.062;2023-07-30T14:35:03;22.50;99.90
22114;DHT22;11223;49.968;9.062;2023-07-30T14:37:28;22.50;99.90
22114;DHT22;11223;49.968;9.062;2023-07-30T14:39:53;22.50;99.90
22114;DHT22;11223;49.968;9.062;2023-07-30T14:42:19;23.30;99.90
22114;DHT22;11223;49.968;9.062;2023-07-30T14:44:44;24.70;99.90
22114;DHT22;11223;49.968;9.062;2023-07-30T14:47:10;25.60;99.90
22114;DHT22;11223;49.968;9.062;2023-07-30T14:49:36;26.30;99.90
22114;DHT22;11223;49.968;9.062;2023-07-30T14:52:04;26.50;99.30
22114;DHT22;11223;49.968;9.062;2023-07-30T14:54:29;26.30;94.00
22114;DHT22;11223;49.968;9.062;2023-07-30T14:56:55;26.10;96.90
22114;DHT22;11223;49.968;9.062;2023-07-30T14:59:20;25.70;97.00
22114;DHT22;11223;49.968;9.062;2023-07-30T15:01:46;25.10;99.90
22114;DHT22;11223;49.968;9.062;2023-07-30T15:04:11;24.50;99.90
22114;DHT22;11223;49.968;9.062;2023-07-30T15:06:37;24.10;99.90
22114;DHT22;11223;49.968;9.062;2023-07-30T15:09:02;23.90;99.90
22114;DHT22;11223;49.968;9.062;2023-07-30T15:11:28;23.70;99.90
22114;DHT22;11223;49.968;9.062;2023-07-30T15:13:53;23.70;99.90
22114;DHT22;11223;49.968;9.062;2023-07-30T15:16:19;23.40;99.90
22114;DHT22;11223;49.968;9.062;2023-07-30T15:18:45;23.10;99.90
22114;DHT22;11223;49.968;9.062;2023-07-30T15:21:11;22.90;99.90
22114;DHT22;11223;49.968;9.062;2023-07-30T15:23:36;22.80;99.90